Time;durP1;ratioP1;P1;durP2;ratioP2;P2;SDS_P1;SDS_P2;PMS_P1;PMS_P2;Temp;Humidity;BMP_temperature;BMP_pressure;BME280_temperature;BME280_humidity;BME280_pressure;Samples;Min_cycle;Max_cycle;Signal;HPM_P1;HPM_P2
2022/03/13 00:02:16;;;;;;;8.88;5.95;;;;;;;9.64;82.82;100593.56;5035306;28;20061;-63
2022/03/13 00:04:48;;;;;;;8.13;5.43;;;;;;;9.76;82.67;100595.78;5033853;28;20057;-64
2022/03/13 00:07:19;;;;;;;10.73;5.65;;;;;;;9.94;81.81;100592.03;5034530;28;20065;-63
2022/03/13 00:09:50;;;;;;;12.05;6.53;;;;;;;9.82;81.16;100600.84;5035201;28;20449;-64
2022/03/13 00:12:29;;;;;;;9.77;5.93;;;;;;;9.69;81.69;100595.41;5034947;28;20050;-63
2022/03/13 00:14:59;;;;;;;9.75;5.60;;;;;;;9.74;81.71;100598.03;5035130;28;20057;-63
2022/03/13 00:17:30;;;;;;;10.02;6.25;;;;;;;9.85;81.26;100596.69;5035245;28;20053;-63
2022/03/13 00:20:02;;;;;;;9.80;6.07;;;;;;;9.96;80.33;100593.38;5035150;28;20068;-63
2022/03/13 00:22:30;;;;;;;9.25;6.20;;;;;;;9.98;80.30;100591.13;5034551;28;20388;-64
2022/03/13 00:25:03;;;;;;;12.48;6.65;;;;;;;9.99;79.70;100589.16;5035149;28;20049;-64
2022/03/13 00:27:31;;;;;;;8.40;5.40;;;;;;;9.94;79.93;100595.59;5035111;28;20537;-64
2022/03/13 00:29:58;;;;;;;8.25;5.45;;;;;;;10.10;79.41;100596.91;5034956;28;20056;-64
2022/03/13 00:32:26;;;;;;;10.05;6.05;;;;;;;10.03;78.81;100591.00;5052271;28;20053;-64
2022/03/13 00:34:53;;;;;;;9.57;6.00;;;;;;;10.12;78.68;100599.34;5054902;28;20065;-63
2022/03/13 00:37:21;;;;;;;9.05;5.57;;;;;;;9.96;78.64;100589.78;5054752;28;20362;-63
2022/03/13 00:39:50;;;;;;;8.30;5.50;;;;;;;10.06;78.52;100593.09;5055105;28;20056;-63
2022/03/13 00:42:18;;;;;;;10.63;6.03;;;;;;;9.86;78.54;100585.38;5054755;28;20048;-63
2022/03/13 00:44:45;;;;;;;9.25;5.53;;;;;;;10.00;78.16;100586.13;5054923;28;20067;-63
2022/03/13 00:47:12;;;;;;;7.72;5.43;;;;;;;9.88;78.35;100596.06;5053436;28;20518;-63
2022/03/13 00:49:40;;;;;;;8.93;5.55;;;;;;;10.00;77.93;100580.63;5054484;28;20049;-63
2022/03/13 00:52:13;;;;;;;9.27;5.72;;;;;;;10.04;77.73;100580.81;5053829;28;20044;-64
2022/03/13 00:54:40;;;;;;;10.77;5.30;;;;;;;9.93;77.43;100584.91;5052846;28;20067;-64
2022/03/13 00:57:07;;;;;;;7.22;4.65;;;;;;;9.97;77.63;100572.97;5054629;28;20394;-64
2022/03/13 00:59:34;;;;;;;8.20;4.55;;;;;;;10.18;76.97;100579.63;5054805;28;20060;-64
2022/03/13 01:02:02;;;;;;;9.77;4.57;;;;;;;10.19;75.94;100572.19;5054520;28;20484;-64
2022/03/13 01:04:30;;;;;;;7.13;4.60;;;;;;;10.33;75.69;100581.19;5054602;28;20511;-63
2022/03/13 01:06:57;;;;;;;8.35;4.70;;;;;;;10.43;74.94;100580.09;5054237;28;20061;-63
2022/03/13 01:09:25;;;;;;;7.28;4.63;;;;;;;10.39;74.59;100571.66;5054694;28;20052;-63
2022/03/13 01:11:52;;;;;;;8.48;4.57;;;;;;;10.28;74.90;100573.06;5054490;28;20060;-64
2022/03/13 01:14:20;;;;;;;6.93;4.35;;;;;;;10.27;74.50;100565.91;5054547;28;20509;-64
2022/03/13 01:16:48;;;;;;;8.23;4.35;;;;;;;10.13;75.00;100566.00;5054483;28;20132;-64
2022/03/13 01:19:16;;;;;;;9.48;4.30;;;;;;;10.11;74.77;100564.69;5056638;28;20067;-64
2022/03/13 01:21:44;;;;;;;6.78;3.88;;;;;;;10.18;74.64;100565.06;5057631;28;20096;-64
2022/03/13 01:24:11;;;;;;;6.93;3.83;;;;;;;10.31;74.50;100566.09;5058209;28;20480;-64
2022/03/13 01:26:39;;;;;;;6.57;3.50;;;;;;;10.36;73.83;100550.25;5058067;28;20052;-64
2022/03/13 01:29:08;;;;;;;6.88;3.95;;;;;;;10.23;74.09;100557.47;5056836;28;20049;-65
2022/03/13 01:31:38;;;;;;;8.60;4.00;;;;;;;10.10;74.08;100554.81;5047018;28;20060;-63
2022/03/13 01:34:09;;;;;;;8.82;3.85;;;;;;;10.07;74.22;100556.22;5038071;28;20049;-64
2022/03/13 01:36:37;;;;;;;6.38;3.85;;;;;;;10.32;73.15;100540.22;5038142;28;20053;-64
2022/03/13 01:39:06;;;;;;;7.03;3.92;;;;;;;10.40;72.58;100537.50;5037822;28;20045;-65
2022/03/13 01:41:34;;;;;;;6.63;3.72;;;;;;;10.42;72.44;100532.47;5037979;28;20046;-64
2022/03/13 01:44:02;;;;;;;6.05;3.65;;;;;;;10.58;72.19;100535.63;5036595;28;20060;-64
2022/03/13 01:46:29;;;;;;;6.63;3.50;;;;;;;10.39;72.17;100532.31;5037797;28;20049;-65
2022/03/13 01:49:02;;;;;;;7.13;3.53;;;;;;;10.43;72.19;100525.84;5037627;28;20060;-65
2022/03/13 01:51:31;;;;;;;7.10;4.15;;;;;;;10.29;72.77;100522.38;5037605;28;20056;-64
2022/03/13 01:54:02;;;;;;;5.85;3.67;;;;;;;10.49;71.88;100521.00;5037330;28;20060;-64
2022/03/13 01:56:31;;;;;;;5.93;3.42;;;;;;;10.39;71.94;100521.28;5037590;28;20054;-64
2022/03/13 01:58:58;;;;;;;6.67;3.60;;;;;;;10.27;71.96;100527.38;5037865;28;20045;-65
2022/03/13 02:01:27;;;;;;;5.65;3.55;;;;;;;10.27;72.01;100513.59;5037617;28;20049;-64
2022/03/13 02:03:55;;;;;;;6.45;3.13;;;;;;;10.19;72.29;100519.88;5037265;28;20504;-63
2022/03/13 02:06:26;;;;;;;4.97;3.38;;;;;;;10.19;72.37;100514.38;5037483;28;20053;-64
2022/03/13 02:08:54;;;;;;;5.13;3.03;;;;;;;10.11;72.45;100509.66;5037285;28;20825;-64
2022/03/13 02:11:23;;;;;;;5.65;3.42;;;;;;;10.28;72.38;100501.47;5037209;28;20057;-64
2022/03/13 02:13:52;;;;;;;6.22;3.65;;;;;;;10.18;72.47;100496.25;5037376;28;20056;-64
2022/03/13 02:16:21;;;;;;;7.43;3.42;;;;;;;10.34;71.71;100494.69;5037478;28;20517;-64
2022/03/13 02:18:51;;;;;;;8.13;3.55;;;;;;;10.34;71.49;100488.41;5036953;28;20499;-64
2022/03/13 02:21:22;;;;;;;7.35;3.80;;;;;;;10.46;71.16;100492.16;5037170;28;20496;-64
2022/03/13 02:24:01;;;;;;;6.80;3.55;;;;;;;10.11;72.16;100493.16;5036735;28;20048;-64
2022/03/13 02:26:31;;;;;;;7.03;3.72;;;;;;;9.96;72.82;100485.25;5037149;28;20386;-63
2022/03/13 02:28:59;;;;;;;5.43;3.38;;;;;;;9.99;72.93;100488.19;5035367;28;20405;-64
2022/03/13 02:31:37;;;;;;;6.72;3.80;;;;;;;10.04;72.87;100479.78;5028096;28;20046;-65
2022/03/13 02:34:10;;;;;;;7.28;3.80;;;;;;;9.81;73.13;100478.22;5016845;28;20049;-64
2022/03/13 02:36:37;;;;;;;6.18;4.00;;;;;;;9.80;74.08;100468.31;5017047;28;20045;-64
2022/03/13 02:39:05;;;;;;;6.30;3.80;;;;;;;10.00;72.98;100470.56;5015225;28;20152;-63
2022/03/13 02:41:33;;;;;;;7.15;3.90;;;;;;;9.81;73.53;100463.63;5017081;28;20049;-63
2022/03/13 02:44:01;;;;;;;6.60;4.00;;;;;;;10.19;72.64;100464.84;5016665;28;20054;-64
2022/03/13 02:46:46;;;;;;;7.50;3.90;;;;;;;9.92;72.99;100470.50;5016759;28;20068;-64
2022/03/13 02:49:19;;;;;;;6.15;4.03;;;;;;;9.66;73.98;100456.56;5016535;28;20500;-64
2022/03/13 02:51:48;;;;;;;6.93;3.80;;;;;;;9.68;74.08;100470.81;5016765;28;20042;-64
2022/03/13 02:54:15;;;;;;;7.00;4.38;;;;;;;9.75;73.59;100462.13;5031768;28;20049;-64
2022/03/13 02:56:44;;;;;;;6.90;3.80;;;;;;;9.71;73.65;100456.44;5016816;28;20046;-64
2022/03/13 02:59:12;;;;;;;6.32;3.75;;;;;;;10.00;73.27;100462.31;5016845;28;20050;-63
2022/03/13 03:01:40;;;;;;;7.13;4.35;;;;;;;9.92;72.83;100459.50;5016805;28;20048;-64
2022/03/13 03:04:08;;;;;;;7.05;4.55;;;;;;;9.78;72.69;100459.56;5016298;28;20054;-64
2022/03/13 03:06:37;;;;;;;6.88;4.50;;;;;;;9.60;73.33;100457.03;5016387;28;20057;-64
2022/03/13 03:09:05;;;;;;;6.57;4.30;;;;;;;9.73;73.24;100453.38;5016499;28;20050;-64
2022/03/13 03:11:33;;;;;;;6.65;4.10;;;;;;;9.69;72.94;100460.66;5016474;28;20045;-63
2022/03/13 03:14:03;;;;;;;7.70;4.57;;;;;;;9.51;73.37;100456.16;5016321;28;20045;-64
2022/03/13 03:16:31;;;;;;;8.07;4.75;;;;;;;9.68;73.35;100448.00;5016720;28;20054;-65
2022/03/13 03:18:59;;;;;;;6.35;4.15;;;;;;;9.70;72.99;100457.59;5016509;28;20053;-65
2022/03/13 03:21:28;;;;;;;7.22;4.90;;;;;;;9.62;72.95;100457.53;5016664;28;20058;-64
2022/03/13 03:23:55;;;;;;;8.80;4.70;;;;;;;9.71;72.67;100453.69;5016001;28;20524;-63
2022/03/13 03:26:25;;;;;;;9.52;4.40;;;;;;;9.82;72.03;100446.00;5016567;28;20049;-64
2022/03/13 03:28:52;;;;;;;8.82;4.97;;;;;;;9.48;73.41;100454.03;5015248;28;20053;-65
2022/03/13 03:31:19;;;;;;;7.57;4.63;;;;;;;9.62;73.17;100446.53;5033227;28;20060;-64
2022/03/13 03:33:49;;;;;;;7.87;4.37;;;;;;;9.53;72.73;100451.16;5055609;28;20052;-64
2022/03/13 03:36:16;;;;;;;6.05;4.10;;;;;;;9.24;73.65;100453.53;5055680;28;20045;-63
2022/03/13 03:38:44;;;;;;;7.15;4.60;;;;;;;9.43;73.27;100448.66;5055761;28;20049;-64
2022/03/13 03:41:12;;;;;;;7.85;4.65;;;;;;;9.33;73.46;100455.19;5055220;28;20048;-64
2022/03/13 03:43:40;;;;;;;6.82;4.32;;;;;;;9.42;73.15;100442.34;5055618;28;20049;-64
2022/03/13 03:46:13;;;;;;;7.82;4.72;;;;;;;9.31;73.10;100443.69;5054803;28;20049;-63
2022/03/13 03:48:41;;;;;;;7.18;4.53;;;;;;;9.01;74.31;100442.47;5055855;28;20040;-65
2022/03/13 03:51:08;;;;;;;7.35;4.78;;;;;;;9.03;74.50;100443.00;5055750;28;20055;-65
2022/03/13 03:53:36;;;;;;;7.32;4.30;;;;;;;9.24;74.13;100454.31;5053844;28;20049;-64
2022/03/13 03:56:03;;;;;;;7.50;4.60;;;;;;;9.48;72.99;100443.03;5055388;28;20055;-64
2022/03/13 03:58:31;;;;;;;7.00;4.45;;;;;;;9.31;72.83;100435.44;5055368;28;20543;-64
2022/03/13 04:00:59;;;;;;;7.90;4.13;;;;;;;9.63;72.14;100445.38;5055212;28;20504;-64
2022/03/13 04:03:26;;;;;;;7.28;4.43;;;;;;;9.60;71.44;100429.53;5054894;28;20125;-63
2022/03/13 04:05:54;;;;;;;7.50;4.28;;;;;;;9.34;71.86;100443.09;5055325;28;20049;-63
2022/03/13 04:08:21;;;;;;;7.80;4.70;;;;;;;9.24;72.60;100437.03;5055133;28;20057;-63
2022/03/13 04:10:48;;;;;;;8.13;4.40;;;;;;;9.21;72.74;100446.69;5054284;28;20526;-63
2022/03/13 04:13:16;;;;;;;7.05;4.35;;;;;;;9.25;72.91;100442.22;5055023;28;20052;-64
2022/03/13 04:15:43;;;;;;;7.60;4.72;;;;;;;9.30;72.75;100441.28;5055038;28;20049;-63
2022/03/13 04:18:10;;;;;;;9.93;4.78;;;;;;;9.41;71.94;100443.47;5054965;28;20061;-63
2022/03/13 04:20:38;;;;;;;8.15;4.38;;;;;;;9.13;72.50;100445.50;5055017;28;20041;-65
2022/03/13 04:23:05;;;;;;;7.47;4.40;;;;;;;9.02;73.21;100451.53;5054474;28;20068;-63
2022/03/13 04:25:34;;;;;;;7.60;4.40;;;;;;;9.11;72.78;100455.19;5055016;28;20048;-64
2022/03/13 04:28:02;;;;;;;10.07;4.65;;;;;;;9.08;73.02;100448.38;5055038;28;20037;-64
2022/03/13 04:30:31;;;;;;;6.43;4.03;;;;;;;9.15;73.07;100461.69;5053277;28;20064;-63
2022/03/13 04:33:00;;;;;;;7.82;4.20;;;;;;;9.32;71.95;100458.25;5034746;28;20064;-63
2022/03/13 04:35:27;;;;;;;7.50;4.35;;;;;;;9.22;72.12;100453.00;5034775;28;20068;-64
2022/03/13 04:37:55;;;;;;;6.28;3.58;;;;;;;9.19;72.11;100454.44;5034962;28;20508;-64
2022/03/13 04:40:22;;;;;;;6.30;3.88;;;;;;;9.41;71.58;100461.91;5017465;28;20065;-64
2022/03/13 04:42:49;;;;;;;6.07;3.92;;;;;;;9.24;71.77;100453.53;5034998;28;20060;-63
2022/03/13 04:45:18;;;;;;;7.28;4.00;;;;;;;9.08;72.65;100456.59;5034583;28;20060;-62
2022/03/13 04:47:46;;;;;;;7.03;4.22;;;;;;;9.18;72.42;100455.56;5034541;28;20053;-62
2022/03/13 04:50:13;;;;;;;7.95;4.10;;;;;;;9.32;71.69;100461.84;5034742;28;20049;-62
2022/03/13 04:52:40;;;;;;;6.50;3.95;;;;;;;9.35;71.24;100452.97;5034625;28;20045;-64
2022/03/13 04:55:08;;;;;;;6.25;3.42;;;;;;;9.41;71.21;100457.22;5037705;28;20053;-64
2022/03/13 04:57:35;;;;;;;6.38;3.80;;;;;;;9.19;71.67;100454.44;5036920;28;20565;-63
2022/03/13 05:00:03;;;;;;;6.85;3.80;;;;;;;9.02;72.45;100446.88;5038637;28;20049;-64
2022/03/13 05:02:31;;;;;;;6.80;3.75;;;;;;;9.16;72.10;100446.81;5038644;28;20056;-64
2022/03/13 05:04:59;;;;;;;5.68;3.45;;;;;;;9.26;71.48;100441.06;5038407;28;20057;-63
2022/03/13 05:07:28;;;;;;;7.00;3.67;;;;;;;9.62;70.47;100432.78;5038241;28;20401;-63
2022/03/13 05:09:55;;;;;;;6.25;3.90;;;;;;;9.44;70.82;100436.53;5038263;28;20136;-64
2022/03/13 05:12:25;;;;;;;6.18;3.60;;;;;;;9.26;70.50;100437.53;5038491;28;20056;-64
2022/03/13 05:14:52;;;;;;;6.57;3.25;;;;;;;9.15;71.50;100433.41;5020573;28;20061;-63
2022/03/13 05:17:20;;;;;;;5.82;3.40;;;;;;;9.30;71.22;100435.78;5038649;28;20068;-63
2022/03/13 05:19:47;;;;;;;5.80;3.67;;;;;;;9.16;70.90;100430.34;5037921;28;20045;-64
2022/03/13 05:22:15;;;;;;;5.78;3.58;;;;;;;9.24;71.18;100435.06;5037295;28;20053;-64
2022/03/13 05:24:42;;;;;;;5.60;3.53;;;;;;;9.43;70.25;100430.22;5038117;28;20057;-62
2022/03/13 05:27:10;;;;;;;6.75;3.35;;;;;;;8.99;71.33;100435.69;5038227;28;20053;-62
2022/03/13 05:29:37;;;;;;;5.50;3.33;;;;;;;9.00;71.43;100432.63;5037926;28;20049;-62
2022/03/13 05:32:05;;;;;;;6.32;3.53;;;;;;;9.26;70.82;100441.06;5052818;28;20389;-64
2022/03/13 05:34:32;;;;;;;5.95;3.50;;;;;;;9.16;70.57;100440.50;5057879;28;20060;-63
2022/03/13 05:36:59;;;;;;;4.97;3.13;;;;;;;9.13;70.73;100447.44;5057730;28;20049;-61
2022/03/13 05:39:27;;;;;;;6.10;3.05;;;;;;;9.22;70.38;100442.03;5056449;28;20060;-62
2022/03/13 05:41:55;;;;;;;6.55;3.15;;;;;;;9.36;70.18;100445.53;5057920;28;20052;-63
2022/03/13 05:44:23;;;;;;;7.22;3.50;;;;;;;9.24;70.08;100443.31;5056548;28;20044;-65
2022/03/13 05:46:50;;;;;;;5.65;3.13;;;;;;;9.23;70.10;100449.94;5057726;28;20404;-64
2022/03/13 05:49:18;;;;;;;7.45;3.50;;;;;;;9.40;69.67;100441.84;5057205;28;20056;-65
2022/03/13 05:51:46;;;;;;;4.95;3.00;;;;;;;9.71;68.57;100444.66;5057486;28;20413;-65
2022/03/13 05:54:13;;;;;;;5.72;3.15;;;;;;;9.52;68.54;100446.78;5057704;28;20059;-63
2022/03/13 05:56:41;;;;;;;6.80;3.10;;;;;;;9.41;68.88;100448.16;5057719;28;20079;-64
2022/03/13 05:59:10;;;;;;;6.00;3.05;;;;;;;9.29;69.02;100453.41;5057476;28;20520;-64
2022/03/13 06:01:38;;;;;;;6.25;3.22;;;;;;;9.29;69.26;100445.97;5057513;28;20053;-63
2022/03/13 06:04:06;;;;;;;7.53;3.35;;;;;;;9.18;70.25;100454.75;5056640;28;20552;-63
2022/03/13 06:06:34;;;;;;;5.85;3.42;;;;;;;9.19;69.76;100459.94;5057041;28;20084;-65
2022/03/13 06:09:01;;;;;;;9.00;3.38;;;;;;;9.19;69.69;100459.13;5055906;28;20052;-64
2022/03/13 06:11:29;;;;;;;5.30;3.08;;;;;;;9.34;69.28;100458.78;5056359;28;20055;-62
2022/03/13 06:13:56;;;;;;;6.00;3.08;;;;;;;9.43;68.70;100463.19;5056693;28;20052;-62
2022/03/13 06:16:24;;;;;;;5.05;2.92;;;;;;;9.28;68.97;100460.81;5057283;28;20057;-63
2022/03/13 06:18:51;;;;;;;6.03;3.28;;;;;;;9.24;69.22;100461.78;5057069;28;20053;-64
2022/03/13 06:21:19;;;;;;;6.03;3.20;;;;;;;9.21;69.04;100463.19;5056894;28;20053;-64
2022/03/13 06:23:46;;;;;;;6.70;3.10;;;;;;;9.29;69.04;100467.97;5056915;28;20053;-64
2022/03/13 06:26:13;;;;;;;4.65;2.50;;;;;;;9.30;68.73;100463.25;5057106;28;20483;-64
2022/03/13 06:28:41;;;;;;;4.75;2.88;;;;;;;9.20;68.69;100469.00;5056761;28;20064;-65
2022/03/13 06:31:09;;;;;;;5.47;2.53;;;;;;;9.14;69.21;100468.28;5050200;28;20080;-63
2022/03/13 06:33:36;;;;;;;5.30;2.78;;;;;;;9.13;69.29;100476.84;5036757;28;20492;-63
2022/03/13 06:36:04;;;;;;;5.20;3.10;;;;;;;9.21;69.09;100482.41;5036919;28;20053;-63
2022/03/13 06:38:31;;;;;;;7.28;2.53;;;;;;;9.12;68.36;100473.28;5036936;28;20058;-63
2022/03/13 06:40:59;;;;;;;5.28;2.45;;;;;;;9.28;68.26;100474.56;5035378;28;20132;-63
2022/03/13 06:43:26;;;;;;;5.30;2.20;;;;;;;9.46;67.77;100478.25;5036974;28;20056;-62
2022/03/13 06:45:54;;;;;;;4.32;2.20;;;;;;;9.60;67.69;100481.78;5036974;28;20060;-63
2022/03/13 06:48:21;;;;;;;4.30;2.50;;;;;;;9.64;66.94;100488.28;5036704;28;20060;-63
2022/03/13 06:50:49;;;;;;;5.10;2.30;;;;;;;9.48;66.99;100478.78;5036541;28;20053;-63
2022/03/13 06:53:17;;;;;;;4.70;2.20;;;;;;;9.15;67.88;100477.38;5036504;28;20404;-63
2022/03/13 06:55:44;;;;;;;4.43;2.08;;;;;;;9.40;67.74;100468.50;5036611;28;20060;-63
2022/03/13 06:58:11;;;;;;;4.60;2.20;;;;;;;9.86;65.81;100482.75;5036649;28;20045;-62
2022/03/13 07:00:39;;;;;;;3.88;2.20;;;;;;;9.73;66.09;100484.44;5036193;28;20061;-62
2022/03/13 07:03:08;;;;;;;4.32;2.50;;;;;;;9.62;66.49;100485.84;5036323;28;20050;-64
2022/03/13 07:05:35;;;;;;;4.35;2.05;;;;;;;9.56;66.49;100483.50;5036478;28;20065;-62
2022/03/13 07:08:03;;;;;;;5.38;2.13;;;;;;;9.53;66.53;100475.91;5036106;28;20067;-63
2022/03/13 07:10:30;;;;;;;3.95;2.03;;;;;;;9.54;66.31;100483.00;5036012;28;20049;-62
2022/03/13 07:12:59;;;;;;;3.38;1.90;;;;;;;9.57;66.22;100480.44;5036106;28;20060;-62
2022/03/13 07:15:30;;;;;;;4.03;2.03;;;;;;;9.49;66.08;100475.72;5035779;28;20057;-63
2022/03/13 07:17:58;;;;;;;3.47;2.05;;;;;;;9.57;66.41;100477.69;5035993;28;20049;-62
2022/03/13 07:20:25;;;;;;;3.80;2.22;;;;;;;9.57;66.16;100472.19;5035850;28;20045;-62
2022/03/13 07:22:53;;;;;;;4.88;2.30;;;;;;;9.44;66.30;100467.59;5035782;28;20053;-63
2022/03/13 07:25:21;;;;;;;4.20;2.20;;;;;;;9.55;66.24;100474.47;5036025;28;20045;-63
2022/03/13 07:27:48;;;;;;;4.72;2.50;;;;;;;9.51;66.17;100461.66;5035926;28;20081;-63
2022/03/13 07:30:15;;;;;;;4.13;2.10;;;;;;;9.47;66.26;100474.38;5035742;28;20069;-63
2022/03/13 07:32:43;;;;;;;3.60;1.88;;;;;;;9.56;66.05;100473.34;5035629;28;20060;-63
2022/03/13 07:35:12;;;;;;;4.80;2.10;;;;;;;9.51;66.10;100476.22;5035678;28;20053;-62
2022/03/13 07:37:43;;;;;;;3.90;2.00;;;;;;;9.70;65.16;100476.84;5035710;28;20053;-62
2022/03/13 07:40:11;;;;;;;3.30;1.90;;;;;;;9.68;65.10;100476.34;5033834;28;20053;-63
2022/03/13 07:42:38;;;;;;;3.88;2.00;;;;;;;9.90;64.56;100479.06;5034365;28;20421;-63
2022/03/13 07:45:10;;;;;;;6.18;2.60;;;;;;;9.92;64.20;100479.56;5035191;28;20049;-63
2022/03/13 07:47:37;;;;;;;3.72;2.00;;;;;;;10.01;63.99;100479.59;5035420;28;20064;-63
2022/03/13 07:50:05;;;;;;;5.00;2.47;;;;;;;10.28;63.23;100473.97;5035283;28;20156;-62
2022/03/13 07:52:33;;;;;;;4.07;2.28;;;;;;;10.13;63.08;100472.41;5035313;28;20045;-62
2022/03/13 07:55:00;;;;;;;4.93;2.50;;;;;;;10.02;63.44;100478.50;5033645;28;20057;-63
2022/03/13 07:57:30;;;;;;;3.65;1.95;;;;;;;10.13;63.18;100472.41;5034039;28;20500;-62
2022/03/13 07:59:58;;;;;;;4.60;2.58;;;;;;;10.32;62.78;100476.88;5035054;28;20057;-62
2022/03/13 08:02:25;;;;;;;4.55;2.22;;;;;;;10.02;63.37;100479.28;5033931;28;20049;-62
2022/03/13 08:04:53;;;;;;;3.63;2.00;;;;;;;10.11;63.12;100479.38;5033872;28;20060;-63
2022/03/13 08:07:20;;;;;;;3.53;2.00;;;;;;;9.95;63.24;100478.13;5033638;28;20057;-63
2022/03/13 08:09:50;;;;;;;6.67;2.40;;;;;;;9.89;63.59;100473.88;5032840;28;20068;-62
2022/03/13 08:12:17;;;;;;;3.70;2.17;;;;;;;10.05;63.50;100466.84;5033778;28;20061;-63
2022/03/13 08:14:45;;;;;;;4.38;2.10;;;;;;;10.03;62.91;100461.66;5034779;28;20050;-63
2022/03/13 08:17:15;;;;;;;6.15;2.20;;;;;;;10.14;62.88;100467.72;5035128;28;20064;-64
2022/03/13 08:19:42;;;;;;;3.22;1.90;;;;;;;10.29;62.53;100470.06;5034955;28;20117;-65
2022/03/13 08:22:10;;;;;;;3.63;1.98;;;;;;;10.18;62.70;100464.03;5034864;28;20062;-64
2022/03/13 08:24:37;;;;;;;3.20;1.95;;;;;;;10.14;62.66;100468.56;5034930;28;20488;-64
2022/03/13 08:27:04;;;;;;;3.75;2.10;;;;;;;10.29;62.54;100464.56;5034657;28;20053;-65
2022/03/13 08:29:32;;;;;;;4.55;2.35;;;;;;;10.44;61.71;100457.81;5035313;28;20061;-66
2022/03/13 08:31:59;;;;;;;5.03;2.67;;;;;;;10.49;61.41;100454.91;5048741;28;20059;-64
2022/03/13 08:34:30;;;;;;;5.78;1.90;;;;;;;10.45;61.06;100457.50;5052718;28;20056;-64
2022/03/13 08:37:02;;;;;;;5.65;1.85;;;;;;;10.37;61.44;100457.47;5054632;28;20056;-64
2022/03/13 08:39:30;;;;;;;3.78;2.10;;;;;;;10.38;61.59;100457.16;5054814;28;20049;-65
2022/03/13 08:41:58;;;;;;;3.17;1.70;;;;;;;10.49;61.57;100453.00;5054363;28;20052;-64
2022/03/13 08:44:25;;;;;;;6.47;1.98;;;;;;;10.42;61.38;100447.13;5054897;28;20040;-64
2022/03/13 08:46:53;;;;;;;3.92;2.10;;;;;;;10.66;60.55;100452.22;5054709;28;20064;-64
2022/03/13 08:49:20;;;;;;;2.55;1.55;;;;;;;10.85;60.25;100455.50;5054730;28;20067;-63
2022/03/13 08:51:47;;;;;;;2.97;1.75;;;;;;;10.92;59.73;100448.38;5054307;28;20407;-64
2022/03/13 08:54:16;;;;;;;2.38;1.55;;;;;;;11.07;59.06;100458.13;5054674;28;20503;-65
2022/03/13 08:56:43;;;;;;;5.00;2.20;;;;;;;11.20;58.89;100452.47;5053487;28;20504;-64
2022/03/13 08:59:11;;;;;;;3.00;1.73;;;;;;;11.41;58.36;100446.28;5054682;28;20053;-65
2022/03/13 09:01:38;;;;;;;2.83;1.77;;;;;;;11.50;57.82;100447.91;5053195;28;20067;-64
2022/03/13 09:04:05;;;;;;;3.53;1.75;;;;;;;11.63;57.57;100454.41;5054546;28;20512;-65
2022/03/13 09:06:33;;;;;;;2.78;1.45;;;;;;;11.64;57.32;100458.75;5054417;28;20421;-65
2022/03/13 09:09:00;;;;;;;2.90;1.67;;;;;;;11.64;57.45;100461.53;5054580;28;20045;-65
2022/03/13 09:11:27;;;;;;;4.70;1.27;;;;;;;11.84;56.34;100469.13;5052510;28;20057;-64
2022/03/13 09:13:55;;;;;;;3.83;1.15;;;;;;;11.81;55.76;100461.53;5054539;28;20059;-64
2022/03/13 09:16:22;;;;;;;2.72;1.30;;;;;;;11.86;55.12;100453.88;5054606;28;20499;-64
2022/03/13 09:18:50;;;;;;;4.28;1.60;;;;;;;11.77;55.51;100444.03;5054322;28;20618;-64
2022/03/13 09:21:17;;;;;;;2.65;1.50;;;;;;;11.71;55.75;100453.59;5052695;28;20068;-65
2022/03/13 09:23:45;;;;;;;2.60;1.58;;;;;;;11.89;55.54;100457.94;5054578;28;20377;-63
2022/03/13 09:26:12;;;;;;;2.70;1.10;;;;;;;12.12;55.37;100453.81;5054430;28;20060;-64
2022/03/13 09:28:40;;;;;;;2.67;1.30;;;;;;;12.47;54.48;100455.28;5053934;28;20053;-64
2022/03/13 09:31:09;;;;;;;2.80;1.67;;;;;;;12.36;54.04;100454.06;5047426;28;20632;-65
2022/03/13 09:33:37;;;;;;;2.78;1.38;;;;;;;12.45;53.51;100446.53;5033199;28;20064;-64
2022/03/13 09:36:04;;;;;;;3.03;1.60;;;;;;;12.22;54.74;100448.72;5034346;28;20045;-64
2022/03/13 09:38:32;;;;;;;1.83;1.10;;;;;;;12.32;54.33;100456.66;5034180;28;20064;-64
2022/03/13 09:40:59;;;;;;;2.13;1.20;;;;;;;12.43;53.95;100470.91;5037018;28;20128;-65
2022/03/13 09:43:27;;;;;;;2.70;1.33;;;;;;;12.40;53.94;100466.03;5037769;28;20054;-64
2022/03/13 09:45:54;;;;;;;4.05;1.52;;;;;;;12.53;53.72;100453.97;5038015;28;20053;-64
2022/03/13 09:48:22;;;;;;;2.42;1.20;;;;;;;12.69;53.47;100451.44;5037478;28;20057;-63
2022/03/13 09:50:49;;;;;;;2.83;1.20;;;;;;;12.79;52.85;100448.28;5037365;28;20500;-65
2022/03/13 09:53:16;;;;;;;2.72;1.45;;;;;;;12.86;52.68;100456.88;5037536;28;20053;-65
2022/03/13 09:55:44;;;;;;;2.35;1.20;;;;;;;13.01;52.50;100454.31;5037644;28;20050;-65
2022/03/13 09:58:11;;;;;;;4.95;1.40;;;;;;;12.91;52.71;100463.03;5037657;28;20049;-66
2022/03/13 10:00:39;;;;;;;2.58;1.33;;;;;;;12.88;52.97;100462.88;5035616;28;20053;-65
2022/03/13 10:03:08;;;;;;;2.83;1.10;;;;;;;12.79;52.83;100459.34;5036242;28;20056;-67
2022/03/13 10:05:49;;;;;;;2.63;1.35;;;;;;;12.84;53.42;100459.16;5037692;28;20049;-66
2022/03/13 10:08:17;;;;;;;2.72;1.40;;;;;;;12.76;53.50;100462.78;5037382;28;20061;-65
2022/03/13 10:10:49;;;;;;;2.17;1.20;;;;;;;12.78;53.67;100457.75;5037097;28;20492;-65
2022/03/13 10:13:45;;;;;;;3.00;1.52;;;;;;;12.64;53.78;100455.19;5037247;28;20519;-65
2022/03/13 10:16:19;;;;;;;3.20;1.75;;;;;;;12.89;53.42;100453.44;5033586;28;20053;-65
2022/03/13 10:18:47;;;;;;;3.03;1.50;;;;;;;13.05;53.17;100463.59;5037148;28;20049;-65
2022/03/13 10:21:19;;;;;;;3.22;1.65;;;;;;;13.18;53.14;100458.97;5036707;28;20464;-65
2022/03/13 10:23:49;;;;;;;2.00;1.40;;;;;;;12.95;53.33;100455.69;5037117;28;20505;-64
2022/03/13 10:26:18;;;;;;;3.53;1.90;;;;;;;13.11;52.99;100453.16;5037227;28;20493;-65
2022/03/13 10:28:45;;;;;;;3.33;1.75;;;;;;;12.99;53.32;100444.75;5019376;28;20053;-64
2022/03/13 10:31:16;;;;;;;3.13;1.77;;;;;;;13.10;53.37;100448.75;5044114;28;20063;-66
2022/03/13 10:34:00;;;;;;;2.60;1.58;;;;;;;13.06;54.03;100440.31;5056666;28;20061;-65
2022/03/13 10:36:34;;;;;;;3.75;1.77;;;;;;;12.98;54.56;100441.19;5056615;28;20049;-64
2022/03/13 10:39:04;;;;;;;3.92;1.55;;;;;;;12.84;54.36;100440.63;5056772;28;20049;-65
2022/03/13 10:41:44;;;;;;;3.00;1.55;;;;;;;12.69;54.98;100434.88;5056654;28;20049;-64
2022/03/13 10:44:21;;;;;;;2.42;1.30;;;;;;;12.81;54.71;100432.19;5039730;28;20250;-64
2022/03/13 10:46:55;;;;;;;3.15;1.60;;;;;;;12.68;54.73;100434.06;5056608;28;20044;-63
2022/03/13 10:49:32;;;;;;;3.08;1.50;;;;;;;12.98;54.16;100429.31;5056364;28;20052;-64
2022/03/13 10:52:01;;;;;;;4.43;2.10;;;;;;;12.87;54.54;100434.41;5055788;28;20049;-64
2022/03/13 10:54:34;;;;;;;5.43;2.73;;;;;;;13.03;54.53;100427.19;5055293;28;20056;-63
2022/03/13 10:57:12;;;;;;;6.32;1.95;;;;;;;12.96;54.37;100432.41;5056163;28;20056;-64
2022/03/13 10:59:43;;;;;;;6.32;2.70;;;;;;;12.93;55.11;100435.84;5056533;28;20507;-64
2022/03/13 11:02:15;;;;;;;4.15;2.08;;;;;;;13.15;54.21;100429.19;5056153;28;20045;-64
2022/03/13 11:05:00;;;;;;;3.55;1.80;;;;;;;13.01;54.39;100432.22;5056175;28;20049;-64
2022/03/13 11:07:28;;;;;;;4.95;2.00;;;;;;;12.90;54.90;100439.25;5055969;28;20063;-64
2022/03/13 11:09:56;;;;;;;3.83;1.90;;;;;;;12.94;55.03;100434.69;5038192;28;20056;-64
2022/03/13 11:12:26;;;;;;;3.17;1.90;;;;;;;12.91;55.14;100438.13;5055904;28;20060;-64
2022/03/13 11:15:01;;;;;;;3.55;1.90;;;;;;;12.99;54.97;100437.25;5037826;28;20056;-65
2022/03/13 11:17:30;;;;;;;3.00;1.90;;;;;;;13.08;55.17;100440.00;5055868;28;20248;-64
2022/03/13 11:19:59;;;;;;;5.82;2.00;;;;;;;13.26;54.66;100435.94;5053737;28;20057;-65
2022/03/13 11:22:28;;;;;;;4.30;2.13;;;;;;;13.08;54.78;100440.81;5054396;28;20064;-63
2022/03/13 11:25:01;;;;;;;3.58;1.88;;;;;;;13.04;55.50;100439.06;5053925;28;20056;-65
2022/03/13 11:27:30;;;;;;;4.63;1.90;;;;;;;12.89;55.52;100445.13;5055997;28;20377;-66
2022/03/13 11:30:00;;;;;;;3.45;1.70;;;;;;;12.83;55.40;100441.75;5054148;28;20068;-65
2022/03/13 11:32:50;;;;;;;3.58;1.80;;;;;;;12.60;56.42;100440.44;5037776;28;20057;-67
2022/03/13 11:35:18;;;;;;;2.83;1.48;;;;;;;12.47;56.76;100447.00;5018138;28;20060;-66
2022/03/13 11:37:52;;;;;;;3.65;1.85;;;;;;;12.64;57.88;100451.66;5035627;28;20065;-65